Terminal Aerodrome Forecast
Issued by NWS

Home | Current Version | Previous Version | Text Only | Print | Product List | Glossary On
Versions: 1 2 3 4 5 6 7 8 9 10 11 12 13 14
000
FTUS45 KABQ 211100
TAFAEG
TAF
KAEG 211129Z 2112/2212 36004KT P6SM BKN060
     FM211900 15007KT P6SM VCSH BKN070
     FM212200 17007KT P6SM VCTS BKN060CB
     FM220100 14005KT P6SM VCSH BKN060
     FM220500 VRB03KT P6SM BKN060=

USA.gov is the U.S. government's official web portal to all federal, state and local government web resources and services.